Zeland M. Deloach Jr. — WDD9083 — position and weather

sailwx.info

Track history (hours):
 
Tides and Currents Weather Stations Pressure Air Temp Water Temp Dewpoint Dewpoint Depression Visibility Wind Speed Wind Dir Waves Ship Positions

Zeland M. Deloach Jr.

Owner: Ingram Barge Company LLC, Nashville, TN. More information available from US FCC via Universal Licensing System and Coast Guard Vessel Documentation Center.

Last reported at 2018-Feb-24 14:30 UTC. Time now 2018-Feb-24 15:56 UTC.
Position N 29°47' W 095°05'.

Length 25 m; draft 3 m.

Type: Towing. MMSI: 367306570.

Date/timePositionNaut miles runAvg speedWind from/ knotsBaromVisibWave heightAir tempDewpointWater temp
2018-Feb-24 14:30N 29°47' W 095°05'0 0.0
2018-Feb-24 13:49N 29°47' W 095°05'5 0.8
2018-Feb-24 07:21N 29°45' W 095°10'0 0.0
2018-Feb-24 06:48N 29°45' W 095°10'0 0.0
2018-Feb-24 06:30N 29°45' W 095°10'0 0.0
2018-Feb-24 05:57N 29°45' W 095°10'0 0.0
2018-Feb-24 05:24N 29°45' W 095°10'0 0.0
2018-Feb-24 01:24N 29°45' W 095°10'0 0.0
2018-Feb-24 00:54N 29°45' W 095°10'0 0.0
2018-Feb-24 00:30N 29°45' W 095°10'0 0.0
2018-Feb-23 23:47N 29°45' W 095°10'0 0.2
2018-Feb-23 23:29N 29°45' W 095°10'1 2.1
2018-Feb-23 23:00N 29°44' W 095°09'2 3.8
2018-Feb-23 22:29N 29°44' W 095°07'2 3.8
2018-Feb-23 21:58N 29°46' W 095°05'1 2.8
2018-Feb-23 21:30N 29°47' W 095°05'0 0.1
2018-Feb-23 21:00N 29°47' W 095°05'0 0.0
2018-Feb-23 20:28N 29°47' W 095°05'0 0.0
2018-Feb-23 20:00N 29°47' W 095°05'0 0.0
2018-Feb-23 19:30N 29°47' W 095°05'0 0.0
2018-Feb-23 19:01N 29°47' W 095°05'0 0.0
2018-Feb-23 18:22N 29°47' W 095°05'0 0.0
2018-Feb-23 18:00N 29°47' W 095°05'0 0.0
2018-Feb-23 17:30N 29°47' W 095°05'0 0.0
2018-Feb-23 17:01N 29°47' W 095°05'0 0.0
2018-Feb-23 16:30N 29°47' W 095°05'0 0.0
2018-Feb-23 16:00N 29°47' W 095°05'0 0.0
2018-Feb-23 12:51N 29°47' W 095°05'0 0.0
2018-Feb-23 12:30N 29°47' W 095°05'0 0.0
2018-Feb-23 12:00N 29°47' W 095°05'0 0.0
2018-Feb-23 11:30N 29°47' W 095°05'0 0.0
2018-Feb-23 10:53N 29°47' W 095°05'0 0.0
2018-Feb-23 10:31N 29°47' W 095°05'3 0.9
2018-Feb-23 07:24N 29°44' W 095°07'2 4.4
2018-Feb-23 06:57N 29°44' W 095°09'1 0.6
2018-Feb-23 04:37N 29°45' W 095°10'1 1.4
2018-Feb-23 03:54N 29°44' W 095°09'2 5.2
2018-Feb-23 03:30N 29°44' W 095°07'3 0.8
2018-Feb-22 23:48N 29°45' W 095°04'2 6.1
2018-Feb-22 23:29N 29°44' W 095°02'3 5.8
2018-Feb-22 23:00N 29°42' W 094°60'3 6.7
2018-Feb-22 22:29N 29°39' W 094°58'3 6.8
2018-Feb-22 22:00N 29°36' W 094°57'4 7.3
2018-Feb-22 21:31N 29°33' W 094°54'3 5.8
2018-Feb-22 21:00N 29°30' W 094°52'24 0.9
2018-Feb-21 19:02N 29°35' W 094°25'1 4.6
2018-Feb-21 18:54N 29°35' W 094°25'2 4.0
2018-Feb-21 18:25N 29°36' W 094°23'1 2.8
2018-Feb-21 18:00N 29°36' W 094°22'0 0.0
2018-Feb-21 17:21N 29°36' W 094°22'0 0.0
2018-Feb-21 16:58N 29°36' W 094°22'2 4.5
2018-Feb-21 16:30N 29°37' W 094°20'2 4.8
2018-Feb-21 16:00N 29°38' W 094°17'3 5.0
2018-Feb-21 15:30N 29°40' W 094°15'3 5.4
2018-Feb-21 15:00N 29°41' W 094°12'2 3.6
2018-Feb-21 14:31N 29°41' W 094°10'2 4.0
2018-Feb-21 14:00N 29°42' W 094°08'0 1.0
2018-Feb-21 13:31N 29°43' W 094°08'0 0.1
2018-Feb-21 13:01N 29°43' W 094°08'0 0.0
2018-Feb-21 12:30N 29°43' W 094°08'0 0.0
2018-Feb-21 12:01N 29°43' W 094°08'0 0.0
2018-Feb-21 11:30N 29°43' W 094°08'0 0.0
2018-Feb-21 11:00N 29°43' W 094°08'0 0.0
2018-Feb-21 10:31N 29°43' W 094°08'0 0.0
2018-Feb-21 10:00N 29°43' W 094°08'0 0.0
2018-Feb-21 09:31N 29°43' W 094°08'0 0.0
2018-Feb-21 09:00N 29°43' W 094°08'0 0.0
2018-Feb-21 08:30N 29°43' W 094°08'0 0.0
2018-Feb-21 08:01N 29°43' W 094°08'0 0.0
2018-Feb-21 07:30N 29°43' W 094°08'0 0.0
2018-Feb-21 07:00N 29°43' W 094°08'0 0.0
2018-Feb-21 06:30N 29°43' W 094°08'0 0.0
2018-Feb-21 06:00N 29°43' W 094°08'0 0.0
2018-Feb-21 05:31N 29°43' W 094°08'0 0.0
2018-Feb-21 05:00N 29°43' W 094°08'0 0.0
2018-Feb-21 04:31N 29°43' W 094°08'0 0.0
2018-Feb-21 04:01N 29°43' W 094°08'0 0.0
2018-Feb-21 03:30N 29°43' W 094°08'0 0.0
2018-Feb-21 03:00N 29°43' W 094°07'0 0.1
2018-Feb-21 02:29N 29°43' W 094°07'0 0.0
2018-Feb-21 02:00N 29°43' W 094°07'0 0.0
2018-Feb-21 01:30N 29°43' W 094°07'0 0.0
2018-Feb-21 01:00N 29°43' W 094°07'0 0.0
2018-Feb-21 00:30N 29°43' W 094°07'2 3.3
2018-Feb-21 00:00N 29°44' W 094°06'3 6.1
2018-Feb-20 23:30N 29°46' W 094°03'3 6.0
2018-Feb-20 23:00N 29°48' W 094°01'3 5.2
2018-Feb-20 22:29N 29°49' W 093°58'0 0.1
2018-Feb-20 22:00N 29°49' W 093°58'1 1.0
2018-Feb-20 21:28N 29°50' W 093°58'0 0.0
2018-Feb-20 21:00N 29°50' W 093°58'0 0.0
2018-Feb-20 20:30N 29°50' W 093°58'0 0.0
2018-Feb-20 20:00N 29°50' W 093°58'1 1.2
2018-Feb-20 19:30N 29°49' W 093°58'0 0.0
2018-Feb-20 19:00N 29°49' W 093°58'0 0.0
2018-Feb-20 18:30N 29°49' W 093°58'0 0.0
2018-Feb-20 18:00N 29°49' W 093°58'0 0.1
2018-Feb-20 17:31N 29°49' W 093°58'0 0.1
2018-Feb-20 17:00N 29°49' W 093°58'0 0.0
2018-Feb-20 16:30N 29°49' W 093°58'0 0.0
2018-Feb-20 16:00N 29°49' W 093°58'0 0.0
2018-Feb-20 15:30N 29°49' W 093°58'0 0.0
2018-Feb-20 14:59N 29°49' W 093°58'0 0.0
2018-Feb-20 14:30N 29°49' W 093°58'0 0.0
2018-Feb-20 14:00N 29°49' W 093°58'0 0.0
2018-Feb-20 13:30N 29°49' W 093°58'0 0.0
2018-Feb-20 13:00N 29°49' W 093°58'0 0.0
2018-Feb-20 12:30N 29°49' W 093°58'0 0.0
2018-Feb-20 12:00N 29°49' W 093°58'0 0.0
2018-Feb-20 11:29N 29°49' W 093°58'0 0.0
2018-Feb-20 11:00N 29°49' W 093°58'0 0.0
2018-Feb-20 10:30N 29°49' W 093°58'0 0.0
2018-Feb-20 09:59N 29°49' W 093°58'0 0.1
2018-Feb-20 09:31N 29°49' W 093°58'0 0.1
2018-Feb-20 09:00N 29°49' W 093°58'1 2.4
2018-Feb-20 08:30N 29°50' W 093°57'4 7.2
2018-Feb-20 08:00N 29°53' W 093°55'4 7.2
2018-Feb-20 07:30N 29°56' W 093°52'0 0.6
2018-Feb-20 07:00N 29°56' W 093°52'0 0.0
2018-Feb-20 06:30N 29°56' W 093°52'0 0.1
2018-Feb-20 06:00N 29°56' W 093°52'0 0.1
2018-Feb-20 05:30N 29°56' W 093°52'0 0.0
2018-Feb-20 05:00N 29°56' W 093°52'1 1.2
2018-Feb-20 04:30N 29°57' W 093°52'3 5.1
2018-Feb-20 04:00N 29°59' W 093°50'3 6.4
2018-Feb-20 03:30N 29°60' W 093°46'3 6.3
2018-Feb-20 03:00N 30°02' W 093°44'2 4.9
2018-Feb-20 02:30N 30°04' W 093°42'3 5.1
2018-Feb-20 02:00N 30°04' W 093°39'2 3.0
2018-Feb-20 01:30N 30°04' W 093°37'0 0.2
2018-Feb-20 01:00N 30°04' W 093°37'2 4.7
2018-Feb-20 00:30N 30°04' W 093°40'3 5.2
2018-Feb-20 00:00N 30°03' W 093°43'2 5.0
2018-Feb-19 23:30N 30°01' W 093°45'2 4.3
2018-Feb-19 23:00N 29°60' W 093°46'3 5.1
2018-Feb-19 22:30N 29°59' W 093°49'2 4.6
2018-Feb-19 22:00N 29°58' W 093°51'2 4.9
2018-Feb-19 21:30N 29°55' W 093°53'2 4.7
2018-Feb-19 21:00N 29°54' W 093°54'3 5.1
2018-Feb-19 20:30N 29°52' W 093°56'3 5.1
2018-Feb-19 20:00N 29°49' W 093°58'1 2.5
2018-Feb-19 19:30N 29°49' W 093°59'0 0.0
2018-Feb-19 19:00N 29°49' W 093°59'0 0.0
2018-Feb-19 18:30N 29°49' W 093°59'1 2.1
2018-Feb-19 18:00N 29°48' W 094°00'2 4.6
2018-Feb-19 17:31N 29°47' W 094°02'2 4.7
2018-Feb-19 17:00N 29°45' W 094°04'2 3.8
2018-Feb-19 16:30N 29°44' W 094°06'2 3.9
2018-Feb-19 16:00N 29°43' W 094°07'2 3.9
2018-Feb-19 15:30N 29°42' W 094°09'2 3.8
2018-Feb-19 15:00N 29°41' W 094°11'2 3.7
2018-Feb-19 14:30N 29°40' W 094°13'2 3.9
2018-Feb-19 14:00N 29°39' W 094°15'2 3.9
2018-Feb-19 13:29N 29°38' W 094°17'2 3.7
2018-Feb-19 12:58N 29°38' W 094°19'2 3.9
2018-Feb-19 12:30N 29°37' W 094°21'2 3.8
2018-Feb-19 12:00N 29°36' W 094°23'2 3.1
2018-Feb-19 11:30N 29°36' W 094°25'2 3.4
2018-Feb-19 11:00N 29°34' W 094°25'2 3.0
2018-Feb-19 10:30N 29°34' W 094°27'2 3.8
2018-Feb-19 09:59N 29°32' W 094°29'2 4.2
2018-Feb-19 09:30N 29°31' W 094°30'1 2.8
2018-Feb-19 09:00N 29°31' W 094°32'0 0.0
2018-Feb-19 08:30N 29°31' W 094°32'0 0.0
2018-Feb-19 08:00N 29°31' W 094°32'0 0.0
2018-Feb-19 07:30N 29°31' W 094°32'0 0.0
2018-Feb-19 07:00N 29°31' W 094°32'0 0.0
2018-Feb-19 06:31N 29°31' W 094°32'0 0.0
2018-Feb-19 06:00N 29°31' W 094°32'0 0.0
2018-Feb-19 05:31N 29°31' W 094°32'0 0.0
2018-Feb-19 05:00N 29°31' W 094°32'0 0.0
2018-Feb-19 04:29N 29°31' W 094°32'0 0.0
2018-Feb-19 03:59N 29°31' W 094°32'0 0.0
2018-Feb-19 03:26N 29°31' W 094°32'0 0.0
2018-Feb-19 02:47N 29°31' W 094°32'0 0.0
2018-Feb-19 02:30N 29°31' W 094°32'0 0.0
2018-Feb-19 01:47N 29°31' W 094°32'0 0.0
2018-Feb-19 00:38N 29°31' W 094°32'0 0.0
2018-Feb-18 23:07N 29°31' W 094°32'0 0.0
2018-Feb-18 22:48N 29°31' W 094°32'2 1.4
2018-Feb-18 21:16N 29°30' W 094°34'0 0.0
2018-Feb-18 20:10N 29°30' W 094°34'0 0.0
2018-Feb-18 19:59N 29°30' W 094°34'0 0.0
2018-Feb-18 19:20N 29°30' W 094°34'0 0.0
2018-Feb-18 18:58N 29°30' W 094°34'0 0.0
2018-Feb-18 18:12N 29°30' W 094°34'0 0.0
2018-Feb-18 17:52N 29°30' W 094°34'0 0.0
2018-Feb-18 17:11N 29°30' W 094°34'0 0.0
2018-Feb-18 16:57N 29°30' W 094°34'0 0.0
2018-Feb-18 16:27N 29°30' W 094°34'0 0.0
2018-Feb-18 15:59N 29°30' W 094°34'0 0.0
2018-Feb-18 15:29N 29°30' W 094°34'0 0.0
2018-Feb-18 14:56N 29°30' W 094°34'0 0.0
2018-Feb-18 14:29N 29°30' W 094°34'0 0.0
2018-Feb-18 13:04N 29°30' W 094°34'0 0.0
2018-Feb-18 08:29N 29°30' W 094°34'0 0.0
2018-Feb-18 07:59N 29°30' W 094°34'0 0.0
2018-Feb-18 07:29N 29°30' W 094°34'0 0.0
2018-Feb-18 02:27N 29°30' W 094°34'0 0.0
2018-Feb-18 01:53N 29°30' W 094°34'0 0.0
2018-Feb-18 01:24N 29°30' W 094°34'0 0.0
2018-Feb-18 00:34N 29°30' W 094°34'0 0.0
2018-Feb-18 00:29N 29°30' W 094°34'0 0.0
2018-Feb-17 23:48N 29°30' W 094°34'0 0.1
2018-Feb-17 23:20N 29°30' W 094°34'0 0.0
2018-Feb-17 22:59N 29°30' W 094°34'0 0.3
2018-Feb-17 22:31N 29°30' W 094°34'0 0.9
2018-Feb-17 21:57N 29°30' W 094°35'0 0.1
2018-Feb-17 21:27N 29°30' W 094°35'9 1.0
2018-Feb-17 11:50N 29°25' W 094°44'0 0.0
2018-Feb-17 10:27N 29°25' W 094°44'0 0.0
2018-Feb-17 09:52N 29°25' W 094°44'0 0.0
2018-Feb-17 09:19N 29°25' W 094°44'0 0.0
2018-Feb-17 09:00N 29°25' W 094°44'0 0.0
2018-Feb-17 08:26N 29°25' W 094°44'0 0.0
2018-Feb-17 08:00N 29°25' W 094°44'0 0.0
2018-Feb-17 07:25N 29°25' W 094°44'0 0.0
2018-Feb-17 07:00N 29°25' W 094°44'0 0.0
2018-Feb-17 06:25N 29°25' W 094°44'0 0.0
2018-Feb-17 06:00N 29°25' W 094°44'0 0.0
2018-Feb-17 05:30N 29°25' W 094°44'0 0.0
2018-Feb-17 05:00N 29°25' W 094°44'0 0.0
2018-Feb-17 04:30N 29°25' W 094°44'0 0.0
2018-Feb-17 04:00N 29°25' W 094°44'0 0.0
2018-Feb-17 03:30N 29°25' W 094°44'0 0.0
2018-Feb-17 02:59N 29°25' W 094°44'0 0.0
2018-Feb-17 02:26N 29°25' W 094°44'0 0.0
2018-Feb-17 02:00N 29°25' W 094°44'0 0.0
2018-Feb-17 01:28N 29°25' W 094°44'0 0.0
2018-Feb-17 00:58N 29°25' W 094°44'0 0.0
2018-Feb-17 00:30N 29°25' W 094°44'0 0.0
2018-Feb-16 23:58N 29°25' W 094°44'0 0.0
2018-Feb-16 23:30N 29°25' W 094°44'0 0.0
2018-Feb-16 22:51N 29°25' W 094°44'8 1.9
2018-Feb-16 18:45N 29°29' W 094°52'2 7.0
2018-Feb-16 18:30N 29°30' W 094°53'3 6.4
2018-Feb-16 18:00N 29°33' W 094°55'3 5.9
2018-Feb-16 17:30N 29°35' W 094°57'3 5.8
2018-Feb-16 17:00N 29°38' W 094°58'3 6.4
2018-Feb-16 16:30N 29°41' W 094°59'3 5.8
2018-Feb-16 16:00N 29°43' W 095°01'3 5.4
2018-Feb-16 15:30N 29°45' W 095°04'2 3.5
2018-Feb-16 15:00N 29°46' W 095°05'0 0.1
2018-Feb-16 14:30N 29°46' W 095°05'0 0.0
2018-Feb-16 14:00N 29°46' W 095°05'0 0.0
2018-Feb-16 13:30N 29°46' W 095°05'0 0.0
2018-Feb-16 10:48N 29°46' W 095°05'0 0.0
2018-Feb-16 09:43N 29°46' W 095°05'0 0.0
2018-Feb-16 09:14N 29°46' W 095°05'0 0.0
2018-Feb-16 08:22N 29°46' W 095°05'0 0.0
2018-Feb-16 07:50N 29°46' W 095°05'0 0.0
2018-Feb-16 07:30N 29°46' W 095°05'0 0.0
2018-Feb-16 06:50N 29°46' W 095°05'0 0.0
2018-Feb-16 06:13N 29°46' W 095°05'0 0.0
2018-Feb-16 06:00N 29°46' W 095°05'0 0.0
2018-Feb-16 05:29N 29°46' W 095°05'0 0.0
2018-Feb-16 04:55N 29°46' W 095°05'0 0.0
2018-Feb-16 04:20N 29°46' W 095°05'0 0.0
2018-Feb-16 03:58N 29°46' W 095°05'0 0.0
2018-Feb-16 03:20N 29°46' W 095°05'0 0.0
2018-Feb-16 02:52N 29°46' W 095°05'0 0.0
2018-Feb-16 02:29N 29°46' W 095°05'0 0.0
2018-Feb-16 02:00N 29°46' W 095°05'0 0.0
2018-Feb-16 01:28N 29°46' W 095°05'0 0.0
2018-Feb-15 19:35N 29°46' W 095°05'0 0.0
2018-Feb-15 10:20N 29°46' W 095°05'0 0.0
2018-Feb-15 09:42N 29°46' W 095°05'0 0.0
2018-Feb-15 09:27N 29°46' W 095°05'0 0.0
2018-Feb-15 08:52N 29°46' W 095°05'0 0.0
2018-Feb-15 08:30N 29°46' W 095°05'0 0.0
2018-Feb-15 08:00N 29°46' W 095°05'0 0.0
2018-Feb-15 07:29N 29°46' W 095°05'0 0.0
2018-Feb-15 06:59N 29°46' W 095°05'0 0.0
2018-Feb-15 06:29N 29°46' W 095°05'0 0.0
2018-Feb-15 06:00N 29°46' W 095°05'0 0.0
2018-Feb-15 05:31N 29°46' W 095°05'0 0.0
2018-Feb-15 04:55N 29°46' W 095°05'0 0.0
2018-Feb-15 04:27N 29°46' W 095°05'0 0.0
2018-Feb-15 04:00N 29°46' W 095°05'1 0.2
2018-Feb-14 21:43N 29°45' W 095°06'1 4.7
2018-Feb-14 21:29N 29°46' W 095°05'1 0.4
2018-Feb-14 18:49N 29°47' W 095°04'0 0.5
2018-Feb-14 18:18N 29°47' W 095°04'0 0.1
2018-Feb-14 17:43N 29°47' W 095°04'0 2.1
2018-Feb-14 17:30N 29°47' W 095°04'0 0.4
2018-Feb-14 16:58N 29°48' W 095°04'  
Track history (hours):
 
Tides and Currents Weather Stations Pressure Air Temp Water Temp Dewpoint Dewpoint Depression Visibility Wind Speed Wind Dir Waves Ship Positions

Zeland M. Deloach Jr.

Owner: Ingram Barge Company LLC, Nashville, TN. More information available from US FCC via Universal Licensing System and Coast Guard Vessel Documentation Center.

Last reported at 2018-Feb-24 14:30 UTC. Time now 2018-Feb-24 15:56 UTC.
Position N 29°47' W 095°05'.

Length 25 m; draft 3 m.

Type: Towing. MMSI: 367306570.

Date/timePositionNaut miles runAvg speedWind from/ knotsBaromVisibWave heightAir tempDewpointWater temp
2018-Feb-24 14:30N 29°47' W 095°05'0 0.0
2018-Feb-24 13:49N 29°47' W 095°05'5 0.8
2018-Feb-24 07:21N 29°45' W 095°10'0 0.0
2018-Feb-24 06:48N 29°45' W 095°10'0 0.0
2018-Feb-24 06:30N 29°45' W 095°10'0 0.0
2018-Feb-24 05:57N 29°45' W 095°10'0 0.0
2018-Feb-24 05:24N 29°45' W 095°10'0 0.0
2018-Feb-24 01:24N 29°45' W 095°10'0 0.0
2018-Feb-24 00:54N 29°45' W 095°10'0 0.0
2018-Feb-24 00:30N 29°45' W 095°10'0 0.0
2018-Feb-23 23:47N 29°45' W 095°10'0 0.2
2018-Feb-23 23:29N 29°45' W 095°10'1 2.1
2018-Feb-23 23:00N 29°44' W 095°09'2 3.8
2018-Feb-23 22:29N 29°44' W 095°07'2 3.8
2018-Feb-23 21:58N 29°46' W 095°05'1 2.8
2018-Feb-23 21:30N 29°47' W 095°05'0 0.1
2018-Feb-23 21:00N 29°47' W 095°05'0 0.0
2018-Feb-23 20:28N 29°47' W 095°05'0 0.0
2018-Feb-23 20:00N 29°47' W 095°05'0 0.0
2018-Feb-23 19:30N 29°47' W 095°05'0 0.0
2018-Feb-23 19:01N 29°47' W 095°05'0 0.0
2018-Feb-23 18:22N 29°47' W 095°05'0 0.0
2018-Feb-23 18:00N 29°47' W 095°05'0 0.0
2018-Feb-23 17:30N 29°47' W 095°05'0 0.0
2018-Feb-23 17:01N 29°47' W 095°05'0 0.0
2018-Feb-23 16:30N 29°47' W 095°05'0 0.0
2018-Feb-23 16:00N 29°47' W 095°05'0 0.0
2018-Feb-23 12:51N 29°47' W 095°05'0 0.0
2018-Feb-23 12:30N 29°47' W 095°05'0 0.0
2018-Feb-23 12:00N 29°47' W 095°05'0 0.0
2018-Feb-23 11:30N 29°47' W 095°05'0 0.0
2018-Feb-23 10:53N 29°47' W 095°05'0 0.0
2018-Feb-23 10:31N 29°47' W 095°05'3 0.9
2018-Feb-23 07:24N 29°44' W 095°07'2 4.4
2018-Feb-23 06:57N 29°44' W 095°09'1 0.6
2018-Feb-23 04:37N 29°45' W 095°10'1 1.4
2018-Feb-23 03:54N 29°44' W 095°09'2 5.2
2018-Feb-23 03:30N 29°44' W 095°07'3 0.8
2018-Feb-22 23:48N 29°45' W 095°04'2 6.1
2018-Feb-22 23:29N 29°44' W 095°02'3 5.8
2018-Feb-22 23:00N 29°42' W 094°60'3 6.7
2018-Feb-22 22:29N 29°39' W 094°58'3 6.8
2018-Feb-22 22:00N 29°36' W 094°57'4 7.3
2018-Feb-22 21:31N 29°33' W 094°54'3 5.8
2018-Feb-22 21:00N 29°30' W 094°52'24 0.9
2018-Feb-21 19:02N 29°35' W 094°25'1 4.6
2018-Feb-21 18:54N 29°35' W 094°25'2 4.0
2018-Feb-21 18:25N 29°36' W 094°23'1 2.8
2018-Feb-21 18:00N 29°36' W 094°22'0 0.0
2018-Feb-21 17:21N 29°36' W 094°22'0 0.0
2018-Feb-21 16:58N 29°36' W 094°22'2 4.5
2018-Feb-21 16:30N 29°37' W 094°20'2 4.8
2018-Feb-21 16:00N 29°38' W 094°17'3 5.0
2018-Feb-21 15:30N 29°40' W 094°15'3 5.4
2018-Feb-21 15:00N 29°41' W 094°12'2 3.6
2018-Feb-21 14:31N 29°41' W 094°10'2 4.0
2018-Feb-21 14:00N 29°42' W 094°08'0 1.0
2018-Feb-21 13:31N 29°43' W 094°08'0 0.1
2018-Feb-21 13:01N 29°43' W 094°08'0 0.0
2018-Feb-21 12:30N 29°43' W 094°08'0 0.0
2018-Feb-21 12:01N 29°43' W 094°08'0 0.0
2018-Feb-21 11:30N 29°43' W 094°08'0 0.0
2018-Feb-21 11:00N 29°43' W 094°08'0 0.0
2018-Feb-21 10:31N 29°43' W 094°08'0 0.0
2018-Feb-21 10:00N 29°43' W 094°08'0 0.0
2018-Feb-21 09:31N 29°43' W 094°08'0 0.0
2018-Feb-21 09:00N 29°43' W 094°08'0 0.0
2018-Feb-21 08:30N 29°43' W 094°08'0 0.0
2018-Feb-21 08:01N 29°43' W 094°08'0 0.0
2018-Feb-21 07:30N 29°43' W 094°08'0 0.0
2018-Feb-21 07:00N 29°43' W 094°08'0 0.0
2018-Feb-21 06:30N 29°43' W 094°08'0 0.0
2018-Feb-21 06:00N 29°43' W 094°08'0 0.0
2018-Feb-21 05:31N 29°43' W 094°08'0 0.0
2018-Feb-21 05:00N 29°43' W 094°08'0 0.0
2018-Feb-21 04:31N 29°43' W 094°08'0 0.0
2018-Feb-21 04:01N 29°43' W 094°08'0 0.0
2018-Feb-21 03:30N 29°43' W 094°08'0 0.0
2018-Feb-21 03:00N 29°43' W 094°07'0 0.1
2018-Feb-21 02:29N 29°43' W 094°07'0 0.0
2018-Feb-21 02:00N 29°43' W 094°07'0 0.0
2018-Feb-21 01:30N 29°43' W 094°07'0 0.0
2018-Feb-21 01:00N 29°43' W 094°07'0 0.0
2018-Feb-21 00:30N 29°43' W 094°07'2 3.3
2018-Feb-21 00:00N 29°44' W 094°06'3 6.1
2018-Feb-20 23:30N 29°46' W 094°03'3 6.0
2018-Feb-20 23:00N 29°48' W 094°01'3 5.2
2018-Feb-20 22:29N 29°49' W 093°58'0 0.1
2018-Feb-20 22:00N 29°49' W 093°58'1 1.0
2018-Feb-20 21:28N 29°50' W 093°58'0 0.0
2018-Feb-20 21:00N 29°50' W 093°58'0 0.0
2018-Feb-20 20:30N 29°50' W 093°58'0 0.0
2018-Feb-20 20:00N 29°50' W 093°58'1 1.2
2018-Feb-20 19:30N 29°49' W 093°58'0 0.0
2018-Feb-20 19:00N 29°49' W 093°58'0 0.0
2018-Feb-20 18:30N 29°49' W 093°58'0 0.0
2018-Feb-20 18:00N 29°49' W 093°58'0 0.1
2018-Feb-20 17:31N 29°49' W 093°58'0 0.1
2018-Feb-20 17:00N 29°49' W 093°58'0 0.0
2018-Feb-20 16:30N 29°49' W 093°58'0 0.0
2018-Feb-20 16:00N 29°49' W 093°58'0 0.0
2018-Feb-20 15:30N 29°49' W 093°58'0 0.0
2018-Feb-20 14:59N 29°49' W 093°58'0 0.0
2018-Feb-20 14:30N 29°49' W 093°58'0 0.0
2018-Feb-20 14:00N 29°49' W 093°58'0 0.0
2018-Feb-20 13:30N 29°49' W 093°58'0 0.0
2018-Feb-20 13:00N 29°49' W 093°58'0 0.0
2018-Feb-20 12:30N 29°49' W 093°58'0 0.0
2018-Feb-20 12:00N 29°49' W 093°58'0 0.0
2018-Feb-20 11:29N 29°49' W 093°58'0 0.0
2018-Feb-20 11:00N 29°49' W 093°58'0 0.0
2018-Feb-20 10:30N 29°49' W 093°58'0 0.0
2018-Feb-20 09:59N 29°49' W 093°58'0 0.1
2018-Feb-20 09:31N 29°49' W 093°58'0 0.1
2018-Feb-20 09:00N 29°49' W 093°58'1 2.4
2018-Feb-20 08:30N 29°50' W 093°57'4 7.2
2018-Feb-20 08:00N 29°53' W 093°55'4 7.2
2018-Feb-20 07:30N 29°56' W 093°52'0 0.6
2018-Feb-20 07:00N 29°56' W 093°52'0 0.0
2018-Feb-20 06:30N 29°56' W 093°52'0 0.1
2018-Feb-20 06:00N 29°56' W 093°52'0 0.1
2018-Feb-20 05:30N 29°56' W 093°52'0 0.0
2018-Feb-20 05:00N 29°56' W 093°52'1 1.2
2018-Feb-20 04:30N 29°57' W 093°52'3 5.1
2018-Feb-20 04:00N 29°59' W 093°50'3 6.4
2018-Feb-20 03:30N 29°60' W 093°46'3 6.3
2018-Feb-20 03:00N 30°02' W 093°44'2 4.9
2018-Feb-20 02:30N 30°04' W 093°42'3 5.1
2018-Feb-20 02:00N 30°04' W 093°39'2 3.0
2018-Feb-20 01:30N 30°04' W 093°37'0 0.2
2018-Feb-20 01:00N 30°04' W 093°37'2 4.7
2018-Feb-20 00:30N 30°04' W 093°40'3 5.2
2018-Feb-20 00:00N 30°03' W 093°43'2 5.0
2018-Feb-19 23:30N 30°01' W 093°45'2 4.3
2018-Feb-19 23:00N 29°60' W 093°46'3 5.1
2018-Feb-19 22:30N 29°59' W 093°49'2 4.6
2018-Feb-19 22:00N 29°58' W 093°51'2 4.9
2018-Feb-19 21:30N 29°55' W 093°53'2 4.7
2018-Feb-19 21:00N 29°54' W 093°54'3 5.1
2018-Feb-19 20:30N 29°52' W 093°56'3 5.1
2018-Feb-19 20:00N 29°49' W 093°58'1 2.5
2018-Feb-19 19:30N 29°49' W 093°59'0 0.0
2018-Feb-19 19:00N 29°49' W 093°59'0 0.0
2018-Feb-19 18:30N 29°49' W 093°59'1 2.1
2018-Feb-19 18:00N 29°48' W 094°00'2 4.6
2018-Feb-19 17:31N 29°47' W 094°02'2 4.7
2018-Feb-19 17:00N 29°45' W 094°04'2 3.8
2018-Feb-19 16:30N 29°44' W 094°06'2 3.9
2018-Feb-19 16:00N 29°43' W 094°07'2 3.9
2018-Feb-19 15:30N 29°42' W 094°09'2 3.8
2018-Feb-19 15:00N 29°41' W 094°11'2 3.7
2018-Feb-19 14:30N 29°40' W 094°13'2 3.9
2018-Feb-19 14:00N 29°39' W 094°15'2 3.9
2018-Feb-19 13:29N 29°38' W 094°17'2 3.7
2018-Feb-19 12:58N 29°38' W 094°19'2 3.9
2018-Feb-19 12:30N 29°37' W 094°21'2 3.8
2018-Feb-19 12:00N 29°36' W 094°23'2 3.1
2018-Feb-19 11:30N 29°36' W 094°25'2 3.4
2018-Feb-19 11:00N 29°34' W 094°25'2 3.0
2018-Feb-19 10:30N 29°34' W 094°27'2 3.8
2018-Feb-19 09:59N 29°32' W 094°29'2 4.2
2018-Feb-19 09:30N 29°31' W 094°30'1 2.8
2018-Feb-19 09:00N 29°31' W 094°32'0 0.0
2018-Feb-19 08:30N 29°31' W 094°32'0 0.0
2018-Feb-19 08:00N 29°31' W 094°32'0 0.0
2018-Feb-19 07:30N 29°31' W 094°32'0 0.0
2018-Feb-19 07:00N 29°31' W 094°32'0 0.0
2018-Feb-19 06:31N 29°31' W 094°32'0 0.0
2018-Feb-19 06:00N 29°31' W 094°32'0 0.0
2018-Feb-19 05:31N 29°31' W 094°32'0 0.0
2018-Feb-19 05:00N 29°31' W 094°32'0 0.0
2018-Feb-19 04:29N 29°31' W 094°32'0 0.0
2018-Feb-19 03:59N 29°31' W 094°32'0 0.0
2018-Feb-19 03:26N 29°31' W 094°32'0 0.0
2018-Feb-19 02:47N 29°31' W 094°32'0 0.0
2018-Feb-19 02:30N 29°31' W 094°32'0 0.0
2018-Feb-19 01:47N 29°31' W 094°32'0 0.0
2018-Feb-19 00:38N 29°31' W 094°32'0 0.0
2018-Feb-18 23:07N 29°31' W 094°32'0 0.0
2018-Feb-18 22:48N 29°31' W 094°32'2 1.4
2018-Feb-18 21:16N 29°30' W 094°34'0 0.0
2018-Feb-18 20:10N 29°30' W 094°34'0 0.0
2018-Feb-18 19:59N 29°30' W 094°34'0 0.0
2018-Feb-18 19:20N 29°30' W 094°34'0 0.0
2018-Feb-18 18:58N 29°30' W 094°34'0 0.0
2018-Feb-18 18:12N 29°30' W 094°34'0 0.0
2018-Feb-18 17:52N 29°30' W 094°34'0 0.0
2018-Feb-18 17:11N 29°30' W 094°34'0 0.0
2018-Feb-18 16:57N 29°30' W 094°34'0 0.0
2018-Feb-18 16:27N 29°30' W 094°34'0 0.0
2018-Feb-18 15:59N 29°30' W 094°34'0 0.0
2018-Feb-18 15:29N 29°30' W 094°34'0 0.0
2018-Feb-18 14:56N 29°30' W 094°34'0 0.0
2018-Feb-18 14:29N 29°30' W 094°34'0 0.0
2018-Feb-18 13:04N 29°30' W 094°34'0 0.0
2018-Feb-18 08:29N 29°30' W 094°34'0 0.0
2018-Feb-18 07:59N 29°30' W 094°34'0 0.0
2018-Feb-18 07:29N 29°30' W 094°34'0 0.0
2018-Feb-18 02:27N 29°30' W 094°34'0 0.0
2018-Feb-18 01:53N 29°30' W 094°34'0 0.0
2018-Feb-18 01:24N 29°30' W 094°34'0 0.0
2018-Feb-18 00:34N 29°30' W 094°34'0 0.0
2018-Feb-18 00:29N 29°30' W 094°34'0 0.0
2018-Feb-17 23:48N 29°30' W 094°34'0 0.1
2018-Feb-17 23:20N 29°30' W 094°34'0 0.0
2018-Feb-17 22:59N 29°30' W 094°34'0 0.3
2018-Feb-17 22:31N 29°30' W 094°34'0 0.9
2018-Feb-17 21:57N 29°30' W 094°35'0 0.1
2018-Feb-17 21:27N 29°30' W 094°35'9 1.0
2018-Feb-17 11:50N 29°25' W 094°44'0 0.0
2018-Feb-17 10:27N 29°25' W 094°44'0 0.0
2018-Feb-17 09:52N 29°25' W 094°44'0 0.0
2018-Feb-17 09:19N 29°25' W 094°44'0 0.0
2018-Feb-17 09:00N 29°25' W 094°44'0 0.0
2018-Feb-17 08:26N 29°25' W 094°44'0 0.0
2018-Feb-17 08:00N 29°25' W 094°44'0 0.0
2018-Feb-17 07:25N 29°25' W 094°44'0 0.0
2018-Feb-17 07:00N 29°25' W 094°44'0 0.0
2018-Feb-17 06:25N 29°25' W 094°44'0 0.0
2018-Feb-17 06:00N 29°25' W 094°44'0 0.0
2018-Feb-17 05:30N 29°25' W 094°44'0 0.0
2018-Feb-17 05:00N 29°25' W 094°44'0 0.0
2018-Feb-17 04:30N 29°25' W 094°44'0 0.0
2018-Feb-17 04:00N 29°25' W 094°44'0 0.0
2018-Feb-17 03:30N 29°25' W 094°44'0 0.0
2018-Feb-17 02:59N 29°25' W 094°44'0 0.0
2018-Feb-17 02:26N 29°25' W 094°44'0 0.0
2018-Feb-17 02:00N 29°25' W 094°44'0 0.0
2018-Feb-17 01:28N 29°25' W 094°44'0 0.0
2018-Feb-17 00:58N 29°25' W 094°44'0 0.0
2018-Feb-17 00:30N 29°25' W 094°44'0 0.0
2018-Feb-16 23:58N 29°25' W 094°44'0 0.0
2018-Feb-16 23:30N 29°25' W 094°44'0 0.0
2018-Feb-16 22:51N 29°25' W 094°44'8 1.9
2018-Feb-16 18:45N 29°29' W 094°52'2 7.0
2018-Feb-16 18:30N 29°30' W 094°53'3 6.4
2018-Feb-16 18:00N 29°33' W 094°55'3 5.9
2018-Feb-16 17:30N 29°35' W 094°57'3 5.8
2018-Feb-16 17:00N 29°38' W 094°58'3 6.4
2018-Feb-16 16:30N 29°41' W 094°59'3 5.8
2018-Feb-16 16:00N 29°43' W 095°01'3 5.4
2018-Feb-16 15:30N 29°45' W 095°04'2 3.5
2018-Feb-16 15:00N 29°46' W 095°05'0 0.1
2018-Feb-16 14:30N 29°46' W 095°05'0 0.0
2018-Feb-16 14:00N 29°46' W 095°05'0 0.0
2018-Feb-16 13:30N 29°46' W 095°05'0 0.0
2018-Feb-16 10:48N 29°46' W 095°05'0 0.0
2018-Feb-16 09:43N 29°46' W 095°05'0 0.0
2018-Feb-16 09:14N 29°46' W 095°05'0 0.0
2018-Feb-16 08:22N 29°46' W 095°05'0 0.0
2018-Feb-16 07:50N 29°46' W 095°05'0 0.0
2018-Feb-16 07:30N 29°46' W 095°05'0 0.0
2018-Feb-16 06:50N 29°46' W 095°05'0 0.0
2018-Feb-16 06:13N 29°46' W 095°05'0 0.0
2018-Feb-16 06:00N 29°46' W 095°05'0 0.0
2018-Feb-16 05:29N 29°46' W 095°05'0 0.0
2018-Feb-16 04:55N 29°46' W 095°05'0 0.0
2018-Feb-16 04:20N 29°46' W 095°05'0 0.0
2018-Feb-16 03:58N 29°46' W 095°05'0 0.0
2018-Feb-16 03:20N 29°46' W 095°05'0 0.0
2018-Feb-16 02:52N 29°46' W 095°05'0 0.0
2018-Feb-16 02:29N 29°46' W 095°05'0 0.0
2018-Feb-16 02:00N 29°46' W 095°05'0 0.0
2018-Feb-16 01:28N 29°46' W 095°05'0 0.0
2018-Feb-15 19:35N 29°46' W 095°05'0 0.0
2018-Feb-15 10:20N 29°46' W 095°05'0 0.0
2018-Feb-15 09:42N 29°46' W 095°05'0 0.0
2018-Feb-15 09:27N 29°46' W 095°05'0 0.0
2018-Feb-15 08:52N 29°46' W 095°05'0 0.0
2018-Feb-15 08:30N 29°46' W 095°05'0 0.0
2018-Feb-15 08:00N 29°46' W 095°05'0 0.0
2018-Feb-15 07:29N 29°46' W 095°05'0 0.0
2018-Feb-15 06:59N 29°46' W 095°05'0 0.0
2018-Feb-15 06:29N 29°46' W 095°05'0 0.0
2018-Feb-15 06:00N 29°46' W 095°05'0 0.0
2018-Feb-15 05:31N 29°46' W 095°05'0 0.0
2018-Feb-15 04:55N 29°46' W 095°05'0 0.0
2018-Feb-15 04:27N 29°46' W 095°05'0 0.0
2018-Feb-15 04:00N 29°46' W 095°05'1 0.2
2018-Feb-14 21:43N 29°45' W 095°06'1 4.7
2018-Feb-14 21:29N 29°46' W 095°05'1 0.4
2018-Feb-14 18:49N 29°47' W 095°04'0 0.5
2018-Feb-14 18:18N 29°47' W 095°04'0 0.1
2018-Feb-14 17:43N 29°47' W 095°04'0 2.1
2018-Feb-14 17:30N 29°47' W 095°04'0 0.4
2018-Feb-14 16:58N 29°48' W 095°04'  

Dump ship's entire track history